AirNav   Everest Fuels
 
 629 users online  

03XA Del Sol Medical Center Heliport
El Paso, Texas, USA

GOING TO EL PASO?


FAA INFORMATION EFFECTIVE 10 SEPTEMBER 2020

Location

FAA Identifier: 03XA
Lat/Long: 31-45-26.7000N 106-20-49.1000W
31-45.445000N 106-20.818333W
31.7574167,-106.3469722
(estimated)
Elevation: 3881 ft. / 1183 m (estimated)
Time zone: UTC -5 (UTC -6 during Standard Time)
Zip code: 79935

Heliport Operations

Heliport use: Private use. Permission required prior to landing
Activation date: 08/2012
Control tower: no
ARTCC: ALBUQUERQUE CENTER
FSS: ALBUQUERQUE FLIGHT SERVICE STATION
Attendance: UNATNDD
Segmented circle: no

Heliport Communications

WX ASOS at ELP (3 nm NW): PHONE 915-774-9497
WX AWOS-3PT at DNA (20 nm W): 124.175 (575-589-2643)

Nearby radio navigation aids

VOR radial/distance  VOR name  Freq  Var
ELPr211/4.8EL PASO VORTAC115.2012E
CJSr018/8.3CIUDAD JUAREZ VOR/DME116.7011E
EWMr186/12.3NEWMAN VORTAC112.4012E

 
NDB name  Hdg/Dist  Freq  Var  ID
VALTR186/6.324208EEL . .-..

Heliport Services

Runway Information

Helipad H1

Dimensions: 54 x 54 ft. / 16 x 16 m
Surface: concrete
Latitude: 31-45.445000N
Longitude: 106-20.818333W
Elevation: 3881.0 ft.
Traffic pattern: leftleft

Heliport Ownership and Management from official FAA records

Ownership: Privately-owned
Owner: DEL SOL MEDICAL CENTER
10301 GATEWAY WEST BLVD
EL PASO, TX 79925
Phone (915) 594-5928
Manager: DEL SOL MEDICAL CENTER
10301 GATEWAY WEST BLVD
EL PASO, TX 79925
Phone (915) 594-5928

Additional Remarks

FOR CD CTC ALBUQUERQUE ARTCC AT 505-856-4861.

Instrument Procedures

There are no published instrument procedures at 03XA.

Some nearby airports with instrument procedures:

KELP - El Paso International Airport (3 nm NW)
KBIF - Biggs Army Airfield (Fort Bliss) (6 nm N)
KDNA - Dona Ana County International Jetport Airport (20 nm W)
KLRU - Las Cruces International Airport (43 nm NW)
KHMN - Holloman Air Force Base (67 nm N)
 
Loc | Ops | Rwys | IFR | FBO | Links
Com | Nav | Svcs | Stats | Notes
Aerial photo
No photo
 
Airport distance calculator
Flying to Del Sol Medical Center Heliport? Find the distance to fly.

From to 03XA

Sunrise and sunset
Times for 22-Sep-2020
 Local
(UTC-5)
 Zulu
(UTC)
Morning civil twilight07:3112:31
Sunrise07:5512:55
Sunset20:0001:00
Evening civil twilight20:2501:25

Current date and time
Zulu (UTC)  22-Sep-2020 05:05:33
Local (UTC-5)  22-Sep-2020 00:05:33
 
METAR
KELP 
4nm NW 
220451Z 14004KT 10SM CLR 23/M01 A3013 RMK AO2 SLP132 T02281011
KBIF 
6nm N 
220358Z AUTO 10007KT 10SM CLR 23/00 A3011 RMK AO2 SLPNO T02290000 $
MMCS 
9nm SW 
220343Z 00000KT 10SM SKC 24/M01 A3013
KDNA 
20nm W 
220455Z AUTO 22004KT 10SM 24/M06 A3014 RMK AO2
TAF
KELP 
4nm NW 
211754Z 2118/2218 VRB03KT P6SM FEW080 FM220500 13005KT P6SM SKC FM220600 VRB04KT P6SM SKC
KBIF 
6nm N 
212200Z 2122/2304 VRB06KT 9999 SKC QNH3002INS TX32/2222Z TN13/2214Z
MMCS 
9nm SW 
211609Z 2118/2218 12005KT P6SM SKC BECMG 2120/2122 12015KT SCT040 FM220200 12006KT P6SM SKC BECMG 2205/2206 00000KT FM221600 14005KT P6SM SKC
NOTAMs
Click for the latest NOTAMs
NOTAMs are issued by the DoD/FAA and will open in a separate window not controlled by AirNav.

 

 
 

Would you like to see your business listed on this page?

 If your business provides an interesting product or service to pilots, flight crews, aircraft, or users of the Del Sol Medical Center Heliport, you should consider listing it here.  To start the listing process, click on the button below
 
Add a business
 

Other Pages about Del Sol Medical Center Heliport

Update a link
 
Copyright © AirNav, LLC. All rights reserved. Privacy Policy  Contact